sensor_id;sensor_type;location;lat;lon;timestamp;temperature;humidity
15231;DHT22;32569;51.762;8.564;2023-02-26T00:00:12;-0.50;99.90
15231;DHT22;32569;51.762;8.564;2023-02-26T00:02:41;-0.50;99.90
15231;DHT22;32569;51.762;8.564;2023-02-26T00:05:11;-0.50;99.90
15231;DHT22;32569;51.762;8.564;2023-02-26T00:07:37;-0.50;99.90
15231;DHT22;32569;51.762;8.564;2023-02-26T00:10:05;-0.60;99.90
15231;DHT22;32569;51.762;8.564;2023-02-26T00:12:32;-0.60;99.90
15231;DHT22;32569;51.762;8.564;2023-02-26T00:15:00;-0.60;99.90
15231;DHT22;32569;51.762;8.564;2023-02-26T00:17:37;-0.70;99.90
15231;DHT22;32569;51.762;8.564;2023-02-26T00:20:10;-0.70;99.90
15231;DHT22;32569;51.762;8.564;2023-02-26T00:22:37;-0.70;99.90
15231;DHT22;32569;51.762;8.564;2023-02-26T00:25:04;-0.70;99.90
15231;DHT22;32569;51.762;8.564;2023-02-26T00:27:31;-0.60;99.90
15231;DHT22;32569;51.762;8.564;2023-02-26T00:29:58;-0.70;99.90
15231;DHT22;32569;51.762;8.564;2023-02-26T00:32:25;-0.70;99.90
15231;DHT22;32569;51.762;8.564;2023-02-26T00:34:53;-0.70;99.90
15231;DHT22;32569;51.762;8.564;2023-02-26T00:37:30;-0.80;99.90
15231;DHT22;32569;51.762;8.564;2023-02-26T00:40:13;-0.80;99.90
15231;DHT22;32569;51.762;8.564;2023-02-26T00:42:41;-0.80;99.90
15231;DHT22;32569;51.762;8.564;2023-02-26T00:45:09;-0.80;99.90
15231;DHT22;32569;51.762;8.564;2023-02-26T00:47:41;-0.80;99.90
15231;DHT22;32569;51.762;8.564;2023-02-26T00:50:15;-0.80;99.90
15231;DHT22;32569;51.762;8.564;2023-02-26T00:52:49;-0.90;99.90
15231;DHT22;32569;51.762;8.564;2023-02-26T00:55:18;-0.80;99.90
15231;DHT22;32569;51.762;8.564;2023-02-26T00:57:45;-0.80;99.90
15231;DHT22;32569;51.762;8.564;2023-02-26T01:00:12;-0.80;99.90
15231;DHT22;32569;51.762;8.564;2023-02-26T01:02:40;-0.70;99.90
15231;DHT22;32569;51.762;8.564;2023-02-26T01:05:08;-0.70;99.90
15231;DHT22;32569;51.762;8.564;2023-02-26T01:07:39;-0.80;99.90
15231;DHT22;32569;51.762;8.564;2023-02-26T01:10:09;-0.80;99.90
15231;DHT22;32569;51.762;8.564;2023-02-26T01:12:37;-0.90;99.90
15231;DHT22;32569;51.762;8.564;2023-02-26T01:15:05;-0.90;99.90
15231;DHT22;32569;51.762;8.564;2023-02-26T01:17:36;-0.90;99.90
15231;DHT22;32569;51.762;8.564;2023-02-26T01:20:08;-0.90;99.90
15231;DHT22;32569;51.762;8.564;2023-02-26T01:22:38;-0.80;99.90
15231;DHT22;32569;51.762;8.564;2023-02-26T01:25:10;-0.90;99.90
15231;DHT22;32569;51.762;8.564;2023-02-26T01:27:38;-0.90;99.90
15231;DHT22;32569;51.762;8.564;2023-02-26T01:30:05;-1.00;99.90
15231;DHT22;32569;51.762;8.564;2023-02-26T01:32:41;-0.90;99.90
15231;DHT22;32569;51.762;8.564;2023-02-26T01:35:16;-0.90;99.90
15231;DHT22;32569;51.762;8.564;2023-02-26T01:37:49;-0.90;99.90
15231;DHT22;32569;51.762;8.564;2023-02-26T01:40:34;-1.00;99.90
15231;DHT22;32569;51.762;8.564;2023-02-26T01:43:06;-0.90;99.90
15231;DHT22;32569;51.762;8.564;2023-02-26T01:45:42;-1.00;99.90
15231;DHT22;32569;51.762;8.564;2023-02-26T01:48:19;-1.00;99.90
15231;DHT22;32569;51.762;8.564;2023-02-26T01:50:51;-1.00;99.90
15231;DHT22;32569;51.762;8.564;2023-02-26T01:53:21;-1.00;99.90
15231;DHT22;32569;51.762;8.564;2023-02-26T01:55:53;-1.00;99.90
15231;DHT22;32569;51.762;8.564;2023-02-26T01:58:22;-1.00;99.90
15231;DHT22;32569;51.762;8.564;2023-02-26T02:00:50;-1.00;99.90
15231;DHT22;32569;51.762;8.564;2023-02-26T02:03:18;-1.00;99.90
15231;DHT22;32569;51.762;8.564;2023-02-26T02:05:48;-1.00;99.90
15231;DHT22;32569;51.762;8.564;2023-02-26T02:08:16;-1.00;99.90
15231;DHT22;32569;51.762;8.564;2023-02-26T02:10:45;-1.00;99.90
15231;DHT22;32569;51.762;8.564;2023-02-26T02:13:24;-0.90;99.90
15231;DHT22;32569;51.762;8.564;2023-02-26T02:16:00;-0.90;99.90
15231;DHT22;32569;51.762;8.564;2023-02-26T02:18:35;-1.00;99.90
15231;DHT22;32569;51.762;8.564;2023-02-26T02:24:12;-1.00;99.90
15231;DHT22;32569;51.762;8.564;2023-02-26T02:27:07;-1.00;99.90
15231;DHT22;32569;51.762;8.564;2023-02-26T02:30:00;-1.00;99.90
15231;DHT22;32569;51.762;8.564;2023-02-26T02:32:34;-1.00;99.90
15231;DHT22;32569;51.762;8.564;2023-02-26T02:35:08;-1.00;99.90
15231;DHT22;32569;51.762;8.564;2023-02-26T02:37:40;-1.00;99.90
15231;DHT22;32569;51.762;8.564;2023-02-26T02:40:09;-1.10;99.90
15231;DHT22;32569;51.762;8.564;2023-02-26T02:42:41;-1.10;99.90
15231;DHT22;32569;51.762;8.564;2023-02-26T02:45:16;-1.10;99.90
15231;DHT22;32569;51.762;8.564;2023-02-26T02:47:48;-1.10;99.90
15231;DHT22;32569;51.762;8.564;2023-02-26T02:50:19;-1.10;99.90
15231;DHT22;32569;51.762;8.564;2023-02-26T02:52:51;-1.10;99.90
15231;DHT22;32569;51.762;8.564;2023-02-26T02:55:20;-1.20;99.90
15231;DHT22;32569;51.762;8.564;2023-02-26T02:57:51;-1.10;99.90
15231;DHT22;32569;51.762;8.564;2023-02-26T03:00:21;-1.10;99.90
15231;DHT22;32569;51.762;8.564;2023-02-26T03:02:56;-1.10;99.90
15231;DHT22;32569;51.762;8.564;2023-02-26T03:05:25;-1.00;99.90
15231;DHT22;32569;51.762;8.564;2023-02-26T03:07:54;-1.00;99.90
15231;DHT22;32569;51.762;8.564;2023-02-26T03:10:22;-1.00;99.90
15231;DHT22;32569;51.762;8.564;2023-02-26T03:12:49;-1.00;99.90
15231;DHT22;32569;51.762;8.564;2023-02-26T03:15:29;-1.00;99.90
15231;DHT22;32569;51.762;8.564;2023-02-26T03:18:05;-1.10;99.90
15231;DHT22;32569;51.762;8.564;2023-02-26T03:20:34;-1.10;99.90
15231;DHT22;32569;51.762;8.564;2023-02-26T03:23:07;-1.10;99.90
15231;DHT22;32569;51.762;8.564;2023-02-26T03:25:42;-1.10;99.90
15231;DHT22;32569;51.762;8.564;2023-02-26T03:28:16;-1.20;99.90
15231;DHT22;32569;51.762;8.564;2023-02-26T03:30:49;-1.20;99.90
15231;DHT22;32569;51.762;8.564;2023-02-26T03:33:22;-1.20;99.90
15231;DHT22;32569;51.762;8.564;2023-02-26T03:35:52;-1.20;99.90
15231;DHT22;32569;51.762;8.564;2023-02-26T03:38:25;-1.20;99.90
15231;DHT22;32569;51.762;8.564;2023-02-26T03:40:56;-1.20;99.90
15231;DHT22;32569;51.762;8.564;2023-02-26T03:43:40;-1.10;99.90
15231;DHT22;32569;51.762;8.564;2023-02-26T03:46:13;-1.10;99.90
15231;DHT22;32569;51.762;8.564;2023-02-26T03:48:42;-1.10;99.90
15231;DHT22;32569;51.762;8.564;2023-02-26T03:51:11;-1.00;99.90
15231;DHT22;32569;51.762;8.564;2023-02-26T03:53:46;-1.00;99.90
15231;DHT22;32569;51.762;8.564;2023-02-26T03:56:18;-0.90;99.90
15231;DHT22;32569;51.762;8.564;2023-02-26T03:58:45;-1.00;99.90
15231;DHT22;32569;51.762;8.564;2023-02-26T04:01:25;-1.00;99.90
15231;DHT22;32569;51.762;8.564;2023-02-26T04:03:58;-0.90;99.90
15231;DHT22;32569;51.762;8.564;2023-02-26T04:06:27;-0.90;99.90
15231;DHT22;32569;51.762;8.564;2023-02-26T04:08:54;-0.90;99.90
15231;DHT22;32569;51.762;8.564;2023-02-26T04:11:21;-0.90;99.90
15231;DHT22;32569;51.762;8.564;2023-02-26T04:13:48;-0.90;99.90
15231;DHT22;32569;51.762;8.564;2023-02-26T04:16:15;-1.00;99.90
15231;DHT22;32569;51.762;8.564;2023-02-26T04:18:43;-1.00;99.90
15231;DHT22;32569;51.762;8.564;2023-02-26T04:21:12;-1.00;99.90
15231;DHT22;32569;51.762;8.564;2023-02-26T04:23:39;-1.00;99.90
15231;DHT22;32569;51.762;8.564;2023-02-26T04:26:06;-1.00;99.90
15231;DHT22;32569;51.762;8.564;2023-02-26T04:28:33;-1.00;99.90
15231;DHT22;32569;51.762;8.564;2023-02-26T04:31:02;-1.10;99.90
15231;DHT22;32569;51.762;8.564;2023-02-26T04:33:29;-1.10;99.90
15231;DHT22;32569;51.762;8.564;2023-02-26T04:35:56;-1.10;99.90
15231;DHT22;32569;51.762;8.564;2023-02-26T04:38:24;-1.10;99.90
15231;DHT22;32569;51.762;8.564;2023-02-26T04:40:50;-1.10;99.90
15231;DHT22;32569;51.762;8.564;2023-02-26T04:43:17;-1.20;99.90
15231;DHT22;32569;51.762;8.564;2023-02-26T04:45:44;-1.20;99.90
15231;DHT22;32569;51.762;8.564;2023-02-26T04:48:11;-1.30;99.90
15231;DHT22;32569;51.762;8.564;2023-02-26T04:50:37;-1.20;99.90
15231;DHT22;32569;51.762;8.564;2023-02-26T04:53:04;-1.20;99.90
15231;DHT22;32569;51.762;8.564;2023-02-26T04:55:32;-1.20;99.90
15231;DHT22;32569;51.762;8.564;2023-02-26T04:57:59;-1.20;99.90
15231;DHT22;32569;51.762;8.564;2023-02-26T05:00:26;-1.20;99.90
15231;DHT22;32569;51.762;8.564;2023-02-26T05:02:52;-1.20;99.90
15231;DHT22;32569;51.762;8.564;2023-02-26T05:05:19;-1.20;99.90
15231;DHT22;32569;51.762;8.564;2023-02-26T05:07:45;-1.20;99.90
15231;DHT22;32569;51.762;8.564;2023-02-26T05:10:12;-1.30;99.90
15231;DHT22;32569;51.762;8.564;2023-02-26T05:12:40;-1.30;99.90
15231;DHT22;32569;51.762;8.564;2023-02-26T05:15:07;-1.30;99.90
15231;DHT22;32569;51.762;8.564;2023-02-26T05:17:35;-1.30;99.90
15231;DHT22;32569;51.762;8.564;2023-02-26T05:20:02;-1.30;99.90
15231;DHT22;32569;51.762;8.564;2023-02-26T05:22:28;-1.30;99.90
15231;DHT22;32569;51.762;8.564;2023-02-26T05:24:55;-1.20;99.90
15231;DHT22;32569;51.762;8.564;2023-02-26T05:27:22;-1.20;99.90
15231;DHT22;32569;51.762;8.564;2023-02-26T05:29:50;-1.20;99.90
15231;DHT22;32569;51.762;8.564;2023-02-26T05:32:16;-1.20;99.90
15231;DHT22;32569;51.762;8.564;2023-02-26T05:34:43;-1.20;99.90
15231;DHT22;32569;51.762;8.564;2023-02-26T05:37:09;-1.20;99.90
15231;DHT22;32569;51.762;8.564;2023-02-26T05:39:36;-1.30;99.90
15231;DHT22;32569;51.762;8.564;2023-02-26T05:42:05;-1.30;99.90
15231;DHT22;32569;51.762;8.564;2023-02-26T05:44:38;-1.30;99.90
15231;DHT22;32569;51.762;8.564;2023-02-26T05:47:06;-1.30;99.90
15231;DHT22;32569;51.762;8.564;2023-02-26T05:49:33;-1.30;99.90
15231;DHT22;32569;51.762;8.564;2023-02-26T05:51:59;-1.30;99.90
15231;DHT22;32569;51.762;8.564;2023-02-26T05:54:26;-1.20;99.90
15231;DHT22;32569;51.762;8.564;2023-02-26T05:56:53;-1.20;99.90
15231;DHT22;32569;51.762;8.564;2023-02-26T05:59:22;-1.20;99.90
15231;DHT22;32569;51.762;8.564;2023-02-26T06:01:48;-1.20;99.90
15231;DHT22;32569;51.762;8.564;2023-02-26T06:04:16;-1.20;99.90
15231;DHT22;32569;51.762;8.564;2023-02-26T06:06:43;-1.20;99.90
15231;DHT22;32569;51.762;8.564;2023-02-26T06:09:10;-1.20;99.90
15231;DHT22;32569;51.762;8.564;2023-02-26T06:11:36;-1.20;99.90
15231;DHT22;32569;51.762;8.564;2023-02-26T06:14:05;-1.20;99.90
15231;DHT22;32569;51.762;8.564;2023-02-26T06:16:31;-1.20;99.90
15231;DHT22;32569;51.762;8.564;2023-02-26T06:19:00;-1.20;99.90
15231;DHT22;32569;51.762;8.564;2023-02-26T06:21:32;-1.20;99.90
15231;DHT22;32569;51.762;8.564;2023-02-26T06:23:58;-1.20;99.90
15231;DHT22;32569;51.762;8.564;2023-02-26T06:26:25;-1.20;99.90
15231;DHT22;32569;51.762;8.564;2023-02-26T06:28:52;-1.20;99.90
15231;DHT22;32569;51.762;8.564;2023-02-26T06:31:20;-1.20;99.90
15231;DHT22;32569;51.762;8.564;2023-02-26T06:33:47;-1.20;99.90
15231;DHT22;32569;51.762;8.564;2023-02-26T06:36:14;-1.20;99.90
15231;DHT22;32569;51.762;8.564;2023-02-26T06:38:43;-1.30;99.90
15231;DHT22;32569;51.762;8.564;2023-02-26T06:41:11;-1.20;99.90
15231;DHT22;32569;51.762;8.564;2023-02-26T06:43:38;-1.20;99.90
15231;DHT22;32569;51.762;8.564;2023-02-26T06:46:04;-1.30;99.90
15231;DHT22;32569;51.762;8.564;2023-02-26T06:48:31;-1.30;99.90
15231;DHT22;32569;51.762;8.564;2023-02-26T06:50:58;-1.30;99.90
15231;DHT22;32569;51.762;8.564;2023-02-26T06:53:25;-1.30;99.90
15231;DHT22;32569;51.762;8.564;2023-02-26T06:55:53;-1.20;99.90
15231;DHT22;32569;51.762;8.564;2023-02-26T06:58:19;-1.20;99.90
15231;DHT22;32569;51.762;8.564;2023-02-26T07:00:46;-1.20;99.90
15231;DHT22;32569;51.762;8.564;2023-02-26T07:03:14;-1.20;99.90
15231;DHT22;32569;51.762;8.564;2023-02-26T07:05:41;-1.10;99.90
15231;DHT22;32569;51.762;8.564;2023-02-26T07:08:12;-1.10;99.90
15231;DHT22;32569;51.762;8.564;2023-02-26T07:10:39;-1.10;99.90
15231;DHT22;32569;51.762;8.564;2023-02-26T07:13:08;-1.10;99.90
15231;DHT22;32569;51.762;8.564;2023-02-26T07:15:34;-1.00;99.90
15231;DHT22;32569;51.762;8.564;2023-02-26T07:18:01;-1.10;99.90
15231;DHT22;32569;51.762;8.564;2023-02-26T07:20:28;-1.00;99.90
15231;DHT22;32569;51.762;8.564;2023-02-26T07:22:54;-1.10;99.90
15231;DHT22;32569;51.762;8.564;2023-02-26T07:25:22;-1.10;99.90
15231;DHT22;32569;51.762;8.564;2023-02-26T07:27:54;-1.10;99.90
15231;DHT22;32569;51.762;8.564;2023-02-26T07:30:26;-1.10;99.90
15231;DHT22;32569;51.762;8.564;2023-02-26T07:32:53;-1.10;99.90
15231;DHT22;32569;51.762;8.564;2023-02-26T07:35:19;-1.10;99.90
15231;DHT22;32569;51.762;8.564;2023-02-26T07:37:46;-1.10;99.90
15231;DHT22;32569;51.762;8.564;2023-02-26T07:40:13;-1.00;99.90
15231;DHT22;32569;51.762;8.564;2023-02-26T07:42:40;-1.00;99.90
15231;DHT22;32569;51.762;8.564;2023-02-26T07:45:07;-0.90;99.90
15231;DHT22;32569;51.762;8.564;2023-02-26T07:47:35;-0.90;99.90
15231;DHT22;32569;51.762;8.564;2023-02-26T07:50:04;-0.80;99.90
15231;DHT22;32569;51.762;8.564;2023-02-26T07:52:30;-0.70;99.90
15231;DHT22;32569;51.762;8.564;2023-02-26T07:54:57;-0.70;99.90
15231;DHT22;32569;51.762;8.564;2023-02-26T07:57:24;-0.70;99.90
15231;DHT22;32569;51.762;8.564;2023-02-26T07:59:50;-0.70;99.90
15231;DHT22;32569;51.762;8.564;2023-02-26T08:02:17;-0.70;99.90
15231;DHT22;32569;51.762;8.564;2023-02-26T08:04:45;-0.70;99.90
15231;DHT22;32569;51.762;8.564;2023-02-26T08:07:11;-0.70;99.90
15231;DHT22;32569;51.762;8.564;2023-02-26T08:09:38;-0.70;99.90
15231;DHT22;32569;51.762;8.564;2023-02-26T08:12:05;-0.70;99.90
15231;DHT22;32569;51.762;8.564;2023-02-26T08:14:31;-0.60;99.90
15231;DHT22;32569;51.762;8.564;2023-02-26T08:16:58;-0.60;99.90
15231;DHT22;32569;51.762;8.564;2023-02-26T08:19:24;-0.50;99.90
15231;DHT22;32569;51.762;8.564;2023-02-26T08:21:55;-0.50;99.90
15231;DHT22;32569;51.762;8.564;2023-02-26T08:24:22;-0.50;99.90
15231;DHT22;32569;51.762;8.564;2023-02-26T08:26:49;-0.40;99.90
15231;DHT22;32569;51.762;8.564;2023-02-26T08:29:16;-0.30;99.90
15231;DHT22;32569;51.762;8.564;2023-02-26T08:31:43;-0.30;99.90
15231;DHT22;32569;51.762;8.564;2023-02-26T08:34:09;-0.30;99.90
15231;DHT22;32569;51.762;8.564;2023-02-26T08:36:36;-0.30;99.90
15231;DHT22;32569;51.762;8.564;2023-02-26T08:39:04;-0.30;99.90
15231;DHT22;32569;51.762;8.564;2023-02-26T08:41:32;-0.20;99.90
15231;DHT22;32569;51.762;8.564;2023-02-26T08:44:03;-0.30;99.90
15231;DHT22;32569;51.762;8.564;2023-02-26T08:46:32;-0.20;99.90
15231;DHT22;32569;51.762;8.564;2023-02-26T08:49:02;-0.10;99.90
15231;DHT22;32569;51.762;8.564;2023-02-26T08:51:29;-0.10;99.90
15231;DHT22;32569;51.762;8.564;2023-02-26T08:53:55;0.00;99.90
15231;DHT22;32569;51.762;8.564;2023-02-26T08:56:23;0.00;99.90
15231;DHT22;32569;51.762;8.564;2023-02-26T08:58:50;0.00;99.90
15231;DHT22;32569;51.762;8.564;2023-02-26T09:01:17;0.00;99.90
15231;DHT22;32569;51.762;8.564;2023-02-26T09:03:44;0.10;99.90
15231;DHT22;32569;51.762;8.564;2023-02-26T09:06:10;0.10;99.90
15231;DHT22;32569;51.762;8.564;2023-02-26T09:08:37;0.30;99.90
15231;DHT22;32569;51.762;8.564;2023-02-26T09:11:12;0.30;99.90
15231;DHT22;32569;51.762;8.564;2023-02-26T09:13:40;0.30;99.90
15231;DHT22;32569;51.762;8.564;2023-02-26T09:16:07;0.30;99.90
15231;DHT22;32569;51.762;8.564;2023-02-26T09:18:34;0.50;99.90
15231;DHT22;32569;51.762;8.564;2023-02-26T09:21:00;0.60;99.90
15231;DHT22;32569;51.762;8.564;2023-02-26T09:23:27;0.70;99.90
15231;DHT22;32569;51.762;8.564;2023-02-26T09:25:55;0.80;99.90
15231;DHT22;32569;51.762;8.564;2023-02-26T09:28:22;0.80;99.90
15231;DHT22;32569;51.762;8.564;2023-02-26T09:30:52;0.80;99.90
15231;DHT22;32569;51.762;8.564;2023-02-26T09:33:19;0.70;99.90
15231;DHT22;32569;51.762;8.564;2023-02-26T09:35:47;0.80;99.90
15231;DHT22;32569;51.762;8.564;2023-02-26T09:38:13;0.80;99.90
15231;DHT22;32569;51.762;8.564;2023-02-26T09:40:43;0.90;99.90
15231;DHT22;32569;51.762;8.564;2023-02-26T09:43:25;0.90;99.90
15231;DHT22;32569;51.762;8.564;2023-02-26T09:45:57;1.10;99.90
15231;DHT22;32569;51.762;8.564;2023-02-26T09:48:26;1.00;99.90
15231;DHT22;32569;51.762;8.564;2023-02-26T09:50:57;1.00;99.90
15231;DHT22;32569;51.762;8.564;2023-02-26T09:53:27;1.00;99.40
15231;DHT22;32569;51.762;8.564;2023-02-26T09:55:59;1.00;99.40
15231;DHT22;32569;51.762;8.564;2023-02-26T09:58:29;1.20;98.80
15231;DHT22;32569;51.762;8.564;2023-02-26T10:01:04;1.20;98.40
15231;DHT22;32569;51.762;8.564;2023-02-26T10:03:37;1.20;97.10
15231;DHT22;32569;51.762;8.564;2023-02-26T10:06:20;1.30;97.30
15231;DHT22;32569;51.762;8.564;2023-02-26T10:08:58;1.30;97.30
15231;DHT22;32569;51.762;8.564;2023-02-26T10:11:31;1.40;97.20
15231;DHT22;32569;51.762;8.564;2023-02-26T10:14:03;1.30;97.30
15231;DHT22;32569;51.762;8.564;2023-02-26T10:16:37;1.40;97.40
15231;DHT22;32569;51.762;8.564;2023-02-26T10:19:07;1.30;96.70
15231;DHT22;32569;51.762;8.564;2023-02-26T10:21:38;1.30;96.90
15231;DHT22;32569;51.762;8.564;2023-02-26T10:24:10;1.30;96.90
15231;DHT22;32569;51.762;8.564;2023-02-26T10:26:42;1.40;96.50
15231;DHT22;32569;51.762;8.564;2023-02-26T10:29:18;1.60;96.70
15231;DHT22;32569;51.762;8.564;2023-02-26T10:31:58;1.60;95.70
15231;DHT22;32569;51.762;8.564;2023-02-26T10:34:30;1.50;95.40
15231;DHT22;32569;51.762;8.564;2023-02-26T10:37:03;1.50;95.70
15231;DHT22;32569;51.762;8.564;2023-02-26T10:39:38;1.50;95.90
15231;DHT22;32569;51.762;8.564;2023-02-26T10:42:13;1.50;95.90
15231;DHT22;32569;51.762;8.564;2023-02-26T10:44:48;1.60;95.40
15231;DHT22;32569;51.762;8.564;2023-02-26T10:47:24;1.70;95.20
15231;DHT22;32569;51.762;8.564;2023-02-26T10:49:57;1.70;94.20
15231;DHT22;32569;51.762;8.564;2023-02-26T10:52:27;1.80;94.00
15231;DHT22;32569;51.762;8.564;2023-02-26T10:55:04;1.80;94.20
15231;DHT22;32569;51.762;8.564;2023-02-26T10:57:35;1.70;94.00
15231;DHT22;32569;51.762;8.564;2023-02-26T11:00:04;1.80;93.70
15231;DHT22;32569;51.762;8.564;2023-02-26T11:02:39;1.70;93.90
15231;DHT22;32569;51.762;8.564;2023-02-26T11:05:15;1.70;94.30
15231;DHT22;32569;51.762;8.564;2023-02-26T11:07:44;1.70;93.90
15231;DHT22;32569;51.762;8.564;2023-02-26T11:10:16;1.80;93.70
15231;DHT22;32569;51.762;8.564;2023-02-26T11:12:43;1.80;93.20
15231;DHT22;32569;51.762;8.564;2023-02-26T11:15:14;1.90;95.30
15231;DHT22;32569;51.762;8.564;2023-02-26T11:17:44;2.10;93.30
15231;DHT22;32569;51.762;8.564;2023-02-26T11:20:17;2.20;92.80
15231;DHT22;32569;51.762;8.564;2023-02-26T11:22:47;2.10;92.80
15231;DHT22;32569;51.762;8.564;2023-02-26T11:25:17;2.00;92.80
15231;DHT22;32569;51.762;8.564;2023-02-26T11:27:48;2.20;92.20
15231;DHT22;32569;51.762;8.564;2023-02-26T11:30:17;2.20;91.60
15231;DHT22;32569;51.762;8.564;2023-02-26T11:32:50;2.10;92.50
15231;DHT22;32569;51.762;8.564;2023-02-26T11:35:18;2.20;92.10
15231;DHT22;32569;51.762;8.564;2023-02-26T11:37:48;2.20;91.60
15231;DHT22;32569;51.762;8.564;2023-02-26T11:40:17;2.20;91.70
15231;DHT22;32569;51.762;8.564;2023-02-26T11:42:50;2.00;92.40
15231;DHT22;32569;51.762;8.564;2023-02-26T11:45:20;2.10;92.50
15231;DHT22;32569;51.762;8.564;2023-02-26T11:47:52;2.00;91.90
15231;DHT22;32569;51.762;8.564;2023-02-26T11:50:22;2.00;92.50
15231;DHT22;32569;51.762;8.564;2023-02-26T11:52:55;2.10;93.00
15231;DHT22;32569;51.762;8.564;2023-02-26T11:55:26;2.10;93.10
15231;DHT22;32569;51.762;8.564;2023-02-26T11:57:55;2.30;92.90
15231;DHT22;32569;51.762;8.564;2023-02-26T12:00:25;2.30;91.40
15231;DHT22;32569;51.762;8.564;2023-02-26T12:02:59;2.20;91.80
15231;DHT22;32569;51.762;8.564;2023-02-26T12:05:27;2.20;91.60
15231;DHT22;32569;51.762;8.564;2023-02-26T12:07:53;2.20;91.80
15231;DHT22;32569;51.762;8.564;2023-02-26T12:10:23;2.30;90.90
15231;DHT22;32569;51.762;8.564;2023-02-26T12:12:58;2.30;90.80
15231;DHT22;32569;51.762;8.564;2023-02-26T12:15:34;2.40;90.40
15231;DHT22;32569;51.762;8.564;2023-02-26T12:21:11;2.30;90.40
15231;DHT22;32569;51.762;8.564;2023-02-26T12:24:03;2.30;89.80
15231;DHT22;32569;51.762;8.564;2023-02-26T12:26:40;2.40;88.70
15231;DHT22;32569;51.762;8.564;2023-02-26T12:32:32;2.50;87.80
15231;DHT22;32569;51.762;8.564;2023-02-26T12:38:12;2.60;91.20
15231;DHT22;32569;51.762;8.564;2023-02-26T12:41:09;2.60;91.00
15231;DHT22;32569;51.762;8.564;2023-02-26T12:43:44;2.50;91.60
15231;DHT22;32569;51.762;8.564;2023-02-26T12:46:19;2.70;90.20
15231;DHT22;32569;51.762;8.564;2023-02-26T12:49:01;2.80;88.40
15231;DHT22;32569;51.762;8.564;2023-02-26T12:51:43;2.70;88.00
15231;DHT22;32569;51.762;8.564;2023-02-26T12:54:38;2.80;88.20
15231;DHT22;32569;51.762;8.564;2023-02-26T12:57:38;2.70;88.50
15231;DHT22;32569;51.762;8.564;2023-02-26T13:00:36;2.70;89.30
15231;DHT22;32569;51.762;8.564;2023-02-26T13:03:31;2.60;89.00
15231;DHT22;32569;51.762;8.564;2023-02-26T13:06:22;2.60;89.90
15231;DHT22;32569;51.762;8.564;2023-02-26T13:09:01;2.70;90.70
15231;DHT22;32569;51.762;8.564;2023-02-26T13:11:43;2.90;90.60
15231;DHT22;32569;51.762;8.564;2023-02-26T13:14:23;3.10;90.10
15231;DHT22;32569;51.762;8.564;2023-02-26T13:16:59;3.00;90.80
15231;DHT22;32569;51.762;8.564;2023-02-26T13:19:33;3.20;91.50
15231;DHT22;32569;51.762;8.564;2023-02-26T13:22:05;3.20;92.00
15231;DHT22;32569;51.762;8.564;2023-02-26T13:24:39;3.20;92.70
15231;DHT22;32569;51.762;8.564;2023-02-26T13:27:08;3.10;92.70
15231;DHT22;32569;51.762;8.564;2023-02-26T13:29:42;2.90;92.40
15231;DHT22;32569;51.762;8.564;2023-02-26T13:32:13;2.70;92.60
15231;DHT22;32569;51.762;8.564;2023-02-26T13:34:42;2.60;92.90
15231;DHT22;32569;51.762;8.564;2023-02-26T13:37:22;2.60;93.20
15231;DHT22;32569;51.762;8.564;2023-02-26T13:39:56;2.60;92.90
15231;DHT22;32569;51.762;8.564;2023-02-26T13:42:32;2.60;91.30
15231;DHT22;32569;51.762;8.564;2023-02-26T13:45:22;2.60;91.60
15231;DHT22;32569;51.762;8.564;2023-02-26T13:50:52;2.70;90.60
15231;DHT22;32569;51.762;8.564;2023-02-26T13:53:45;2.90;90.40
15231;DHT22;32569;51.762;8.564;2023-02-26T13:56:16;2.90;91.20
15231;DHT22;32569;51.762;8.564;2023-02-26T13:58:50;3.10;91.00
15231;DHT22;32569;51.762;8.564;2023-02-26T14:01:19;3.10;90.80
15231;DHT22;32569;51.762;8.564;2023-02-26T14:03:49;3.10;91.00
15231;DHT22;32569;51.762;8.564;2023-02-26T14:06:36;3.30;91.50
15231;DHT22;32569;51.762;8.564;2023-02-26T14:09:04;3.50;91.70
15231;DHT22;32569;51.762;8.564;2023-02-26T14:11:46;3.60;91.40
15231;DHT22;32569;51.762;8.564;2023-02-26T14:14:38;3.50;91.50
15231;DHT22;32569;51.762;8.564;2023-02-26T14:20:19;3.40;93.00
15231;DHT22;32569;51.762;8.564;2023-02-26T14:22:49;3.60;93.50
15231;DHT22;32569;51.762;8.564;2023-02-26T14:25:20;3.60;92.40
15231;DHT22;32569;51.762;8.564;2023-02-26T14:28:19;3.60;92.70
15231;DHT22;32569;51.762;8.564;2023-02-26T14:30:52;3.60;92.80
15231;DHT22;32569;51.762;8.564;2023-02-26T14:33:28;3.70;92.40
15231;DHT22;32569;51.762;8.564;2023-02-26T14:35:56;3.60;92.40
15231;DHT22;32569;51.762;8.564;2023-02-26T14:38:25;3.40;92.10
15231;DHT22;32569;51.762;8.564;2023-02-26T14:40:55;3.30;92.20
15231;DHT22;32569;51.762;8.564;2023-02-26T14:43:35;3.20;92.40
15231;DHT22;32569;51.762;8.564;2023-02-26T14:46:03;3.20;91.80
15231;DHT22;32569;51.762;8.564;2023-02-26T14:48:30;3.10;91.70
15231;DHT22;32569;51.762;8.564;2023-02-26T14:51:13;3.10;91.80
15231;DHT22;32569;51.762;8.564;2023-02-26T14:54:04;3.10;91.90
15231;DHT22;32569;51.762;8.564;2023-02-26T14:56:50;3.10;92.40
15231;DHT22;32569;51.762;8.564;2023-02-26T14:59:31;3.10;92.30
15231;DHT22;32569;51.762;8.564;2023-02-26T15:02:10;3.10;91.50
15231;DHT22;32569;51.762;8.564;2023-02-26T15:05:08;3.10;92.00
15231;DHT22;32569;51.762;8.564;2023-02-26T15:07:56;3.20;92.60
15231;DHT22;32569;51.762;8.564;2023-02-26T15:10:37;3.40;92.20
15231;DHT22;32569;51.762;8.564;2023-02-26T15:13:32;3.30;92.20
15231;DHT22;32569;51.762;8.564;2023-02-26T15:16:10;3.30;92.10
15231;DHT22;32569;51.762;8.564;2023-02-26T15:18:53;3.20;92.80
15231;DHT22;32569;51.762;8.564;2023-02-26T15:21:29;3.20;93.00
15231;DHT22;32569;51.762;8.564;2023-02-26T15:23:59;3.20;93.10
15231;DHT22;32569;51.762;8.564;2023-02-26T15:26:27;3.10;92.00
15231;DHT22;32569;51.762;8.564;2023-02-26T15:28:55;3.00;91.80
15231;DHT22;32569;51.762;8.564;2023-02-26T15:31:31;3.00;92.10
15231;DHT22;32569;51.762;8.564;2023-02-26T15:34:00;3.00;92.20
15231;DHT22;32569;51.762;8.564;2023-02-26T15:36:29;3.00;92.30
15231;DHT22;32569;51.762;8.564;2023-02-26T15:38:58;3.10;92.60
15231;DHT22;32569;51.762;8.564;2023-02-26T15:41:27;3.10;92.40
15231;DHT22;32569;51.762;8.564;2023-02-26T15:43:56;3.00;92.90
15231;DHT22;32569;51.762;8.564;2023-02-26T15:46:29;3.10;92.30
15231;DHT22;32569;51.762;8.564;2023-02-26T15:49:00;3.10;91.90
15231;DHT22;32569;51.762;8.564;2023-02-26T15:51:28;3.10;92.20
15231;DHT22;32569;51.762;8.564;2023-02-26T15:53:54;3.10;92.50
15231;DHT22;32569;51.762;8.564;2023-02-26T15:56:29;3.00;92.60
15231;DHT22;32569;51.762;8.564;2023-02-26T15:58:59;2.90;93.00
15231;DHT22;32569;51.762;8.564;2023-02-26T16:01:28;3.00;92.90
15231;DHT22;32569;51.762;8.564;2023-02-26T16:03:57;3.00;92.60
15231;DHT22;32569;51.762;8.564;2023-02-26T16:06:27;2.90;92.30
15231;DHT22;32569;51.762;8.564;2023-02-26T16:08:55;2.80;92.40
15231;DHT22;32569;51.762;8.564;2023-02-26T16:11:23;2.90;92.00
15231;DHT22;32569;51.762;8.564;2023-02-26T16:13:52;2.80;91.70
15231;DHT22;32569;51.762;8.564;2023-02-26T16:16:23;2.80;91.90
15231;DHT22;32569;51.762;8.564;2023-02-26T16:18:52;2.80;92.20
15231;DHT22;32569;51.762;8.564;2023-02-26T16:21:22;2.80;92.30